View Sortable Currents For Network
ASOSAWOSCoCoRaHSCOOPDCPISUSM
SchoolNetOtherSCANMy FavoritesBy StateRWIS
RWIS SurfaceRWIS TrafficRWIS SoilBy NWS WFOUSCRN
ADD: Station: Ob Time Temps °F     Wind [knots] Precip
Air (Hi / Lo) DewP Feels RH% Vis Speed Direction Gust @Time Accum [1]
Ankeny (I-35)06:45 AM 44.6(44.6/39.56) 41.54 40 89 1.2 7G10 185 10@ 06:45 AM 0
Victor06:45 AM 38.12(39.2/37.04) 0 0 0 5G7 174 12@ 01:25 AM 0
Dubuque (US 20)06:45 AM 37.22(37.22/33.8) 33.08 37 85 0 1G5 185 6@ 04:56 AM 0
De Witt (US 30/US 61)06:45 AM 38.66(38.84/33.62) 32.9 34 80 0 5G9 155 10@ 12:04 AM 0
Des Moines (I-35)06:45 AM 42.8(46.94/41.54) 38.48 38 85 0 7G9 140 12@ 02:05 AM 0
Saratoga06:44 AM 35.96(36.14/34.52) 31.82 30 85 0 6G12 190 14@ 06:24 AM 0
Red Oak (US 34/US 71)06:44 AM 41(44.6/41) 41 36 100 0 6G8 160 9@ 05:55 AM 0
Urbana (I-380)06:44 AM 38.12(38.48/36.32) 32.18 31 79 0.1 10G13 150 16@ 04:44 AM 0
Denison06:44 AM 36.5(39.2/36.32) 35.42 37 96 0.1 0 130 0@ 06:00 PM 0
Hawkeye06:44 AM 36.14(36.86/34.7) 31.1 29 82 0 8G11 165 15@ 12:03 AM 0
Steamboat Rock (US20)06:44 AM 38.3(39.56/37.4) 35.96 31 91 0 10G11 155 15@ 12:24 AM 0
Mount Pleasant (US 218)06:43 AM 41.36(41.9/38.84) 31.46 37 68 0 6G9 165 12@ 03:53 AM 0
Osceola (I-35)06:43 AM 42.8(47.12/42.26) 42.44 37 99 7.1 9G13 0 15@ 12:23 AM 0
Marshalltown (US 30)06:43 AM 41(41.18/37.94) 36.86 35 85 0 9G12 170 12@ 06:43 AM 0
Sloan I-2906:43 AM 33.8(37.4/33.44) 0 0 0.1 5G7 215 12@ 04:03 AM 0
Ottumwa (US 63)06:43 AM 40.64(41.72/40.64) 35.24 37 81 3.3 5G7 140 8@ 12:34 AM 0
Manchester (US 20)06:43 AM 36.68(37.04/34.7) 30.2 34 77 0 3G9 175 11@ 03:53 AM 0
Maquoketa (US 61/IA 64)06:43 AM 37.22(37.22/32.9) 29.84 32 74 0 5G8 200 10@ 05:33 AM 0
Missouri Valley (I-29)06:43 AM 37.58(41.54/37.58) 37.04 29 98 0 11G13 180 15@ 05:33 AM 0
De Soto (I-80/US 169)06:42 AM 45.14(46.58/41.9) 42.08 42 89 0.2 5G8 170 12@ 04:51 AM 0
Leon (I-35)/IA 2)06:42 AM 42.08(46.22/41.18) 40.28 38 93 0 6G13 190 13@ 06:42 AM 0
Sidney (I-29/IA 2)06:42 AM 39.92(45.32/38.48) 38.84 34 96 0 7G11 205 11@ 06:12 AM 0
Fort Dodge (US 20)06:42 AM 40.1(40.46/37.04) 37.4 35 90 5.2 7G9 165 12@ 05:32 AM 0
Des Moines (I-235)06:42 AM 45.68(46.94/43.34) 39.92 46 80 0 0 361 0@ 06:00 PM 0
Jefferson (IA 4)06:42 AM 40.28(40.64/34.88) 39.38 36 97 4.1 6G8 145 10@ 04:32 AM 0
Grinnell (I-80)06:42 AM 38.84(39.92/38.3) 34.52 34 84 6 6G8 180 11@ 04:52 AM 0
Iowa City (I-80)06:42 AM (/) 0 0 0 0 361 0@ 06:00 PM 0
Iowa City (US 218)06:42 AM 38.12(39.2/36.32) 37.04 34 96 0 5G9 160 11@ 01:22 AM 0
Decorah (IA 9)06:42 AM 51.44(51.62/51.44) 48.74 51 90 3.3 6G9 145 13@ 04:02 AM 0
Spencer (US 18)06:41 AM (/) 0 0 1.2 8G8 165 10@ 03:11 AM 0
Centerville (IA 2)06:41 AM 44.42(45.14/43.52) 40.1 39 85 0 9G13 185 16@ 05:20 AM 0
Pella (IA 163)06:41 AM 42.44(42.98/36.86) 37.4 42 82 0 0 190 6@ 01:21 AM 0
Creston (US 34)06:41 AM 41(44.06/41) 39.38 34 94 0 10G13 200 15@ 06:21 AM 0
Storm Lake (US 71/IA 3)06:41 AM 33.98(34.88/33.44) 32.9 26 96 0.1 9G10 175 11@ 04:11 AM 0
Sigourney (IA 92)06:40 AM (/) 0 0 0 6G9 160 11@ 12:10 AM 0
Altoona (I-80/US 65)06:40 AM 44.96(45.32/41.9) 41 40 86 3.8 8G11 175 12@ 04:50 AM 0
Hanlontown (I-35)06:40 AM 35.24(35.96/33.8) 34.34 35 96 7.1 0 10 0@ 06:00 PM 0
Cantril06:40 AM 40.1(40.1/38.12) 24.26 34 53 0 9G12 0 13@ 06:20 AM 0
Quad Cities06:40 AM 38.84(39.02/37.22) 37.58 39 95 0.6 1G4 175 13@ 02:20 AM 0
Plainfield06:40 AM 37.76(38.3/35.78) 9.86 32 31 0 7G11 185 12@ 02:10 AM 0
Colfax - I-8006:40 AM 40.82(42.44/37.4) 37.76 38 89 0.1 4G5 205 6@ 04:50 AM 0
Rockwell City06:40 AM 35.42(37.4/35.42) 0 0 0 10G11 175 15@ 01:10 AM 0
Alton (IA10)06:40 AM 30.56(34.88/30.2) 29.48 25 96 0 5G6 145 12@ 01:30 AM 0
Eddyville06:40 AM 40.64(43.16/39.38) 34.16 38 77 1.1 3G4 165 8@ 06:00 AM 0
Cedar Rapids (I-380)06:40 AM 41(41.54/39.56) 32.36 36 71 1.8 6G10 5 14@ 12:10 AM 0
Elkhart I-35 No106:40 AM (/) 0 0 1.2 0 361 0@ 06:00 PM 0
Cedar Rapids (US 30)06:40 AM 40.28(41/38.12) 33.44 35 76 0.1 8G12 120 15@ 05:30 AM 0
Carroll (US 30)06:40 AM 37.58(39.56/37.58) 36.5 32 96 0 7G9 165 11@ 06:00 AM 0
Waterloo (US 20)06:40 AM 37.94(38.66/35.42) 36.5 32 94 0 6G8 185 12@ 03:20 AM 0
Williams (I-35)06:40 AM 38.66(39.02/36.32) 36.68 33 93 0 8G12 180 13@ 02:30 AM 0
Tipton (I-80)06:40 AM 38.66(38.84/35.6) 30.92 39 73 0.8 0G5 185 8@ 02:20 AM 0
Mason City (I-35)06:40 AM 50.54(51.44/49.64) 50.54 51 100 0.1 0 170 0@ 06:00 PM 0
Moville06:40 AM 32.9(37.04/32.72) 32.9 25 100 0 9G11 245 11@ 06:40 AM 0
Council Bluffs (I-80)06:40 AM 39.02(44.24/39.02) 38.84 34 99 0 6G9 0 11@ 01:20 AM 0
Burlington (US 34)06:40 AM 41.18(42.98/41.18) 34.34 37 76 0 5G8 185 15@ 01:40 AM 0
Avoca (I-80)06:40 AM 39.02(41.36/39.02) 27.14 33 62 0.1 8G13 195 13@ 06:10 AM 0
Williamsburg (I-80)06:40 AM 38.12(38.48/36.68) 32.54 35 80 0.1 3G6 150 12@ 12:20 AM 0
Anamosa (US 151)06:40 AM 36.68(37.4/35.42) 31.64 30 82 1.2 7G10 140 15@ 01:00 AM 0
New Hampton (US 18)06:40 AM 35.24(35.78/33.08) 32.72 35 90 5.2 0G6 30 9@ 03:40 AM 0
Tama06:40 AM 37.04(37.76/34.88) -83.56 34 0 7.1 4G6 165 10@ 04:50 AM 0
Estherville - Hwy 906:40 AM 34.88(35.6/32.72) 0 0 0 3G4 190 5@ 03:20 AM 0
Adair (I-80)06:40 AM 42.44(44.96/42.44) 40.28 35 92 0.1 12G16 195 17@ 06:10 AM 0
Elkhart I-35 No206:40 AM (/) 0 0 1.2 0 361 0@ 06:00 PM 0
Cambridge I-3506:40 AM (/) 0 0 1.2 0 361 0@ 06:00 PM 0
Ida Grove (US 59)06:40 AM 37.22(41.54/37.22) 34.52 34 90 0 3G6 190 15@ 03:20 AM 0
Sibley06:40 AM 32.18(34.88/32.18) 32.18 26 100 7.1 6G8 160 11@ 02:50 AM 0
Bedford06:40 AM 41.54(45.32/41.54) 41.54 36 100 0.2 8G11 185 15@ 05:30 AM 0
Council Bluffs No206:40 AM 40.46(44.96/40.28) 37.4 35 89 0 8G12 215 13@ 02:30 AM 0
Algona (US 18)06:40 AM 35.42(36.14/34.16) 28 0 0 8G11 185 15@ 04:50 AM 0


Notes:
1 Not all sites have the ability to measure precip nor visibility.
2 The Iowa City (I-80) RWIS site does not have atmospheric sensors on it , so it is not included on this page.